M I D A S
Marine Information and Data Acquisition System
Tripno 1817 of the Zeeleeuw from 2009-09-30 06:58:40 to 2009-09-30 13:44:59
Back to CruiseResearch ActivitiesStationsMapUnderway DataData graphs

EquipmentUnitsComment
TimeDGPSUTC
LatitudeDGPSDM.mWGS84
LongitudeDGPSDM.mWGS84
HeadingGyrodeg 
SOGDGPSknotsSpeed over ground
COGDGPSdegCourse over ground
DepthEcho soundermeters200 kHz
Missing or incorrect values are displayed as -999
Navigation data collected by the RV Zeeleeuw from 2009-09-30 06:32:28 to 2009-09-30 16:21:44
                                                                                    Next 1000 lines
Time Latitude Longitude Heading SOG COG Depth
2009-09-30 06:32:38 51°13.661 2°55.959 126.8 0.1 356 7.8
2009-09-30 06:32:43 51°13.661 2°55.959 126.8 -999 99 7.8
2009-09-30 06:32:48 51°13.661 2°55.96 126.8 0.1 21 7.8
2009-09-30 06:32:54 51°13.66 2°55.959 126.8 -999 179 7.8
2009-09-30 06:32:59 51°13.659 2°55.959 126.8 -999 196 7.8
2009-09-30 06:33:04 51°13.659 2°55.96 126.9 -999 44 7.8
2009-09-30 06:33:09 51°13.659 2°55.96 126.9 0.1 17 7.8
2009-09-30 06:33:14 51°13.659 2°55.96 126.9 0.1 191 7.8
2009-09-30 06:33:19 51°13.66 2°55.96 126.9 -999 332 7.9
2009-09-30 06:33:24 51°13.661 2°55.96 126.9 -999 26 7.8
2009-09-30 06:33:29 51°13.661 2°55.96 126.9 -999 168 7.8
2009-09-30 06:33:34 51°13.662 2°55.96 126.9 -999 217 7.8
2009-09-30 06:33:39 51°13.662 2°55.96 126.9 -999 300 7.8
2009-09-30 06:33:44 51°13.662 2°55.96 127 0.1 7 7.9
2009-09-30 06:33:49 51°13.662 2°55.96 127 0.1 1 7.9
2009-09-30 06:33:54 51°13.663 2°55.96 127 -999 6 7.8
2009-09-30 06:33:59 51°13.663 2°55.96 127 -999 34 7.9
2009-09-30 06:34:04 51°13.663 2°55.96 127 -999 142 7.8
2009-09-30 06:34:09 51°13.664 2°55.96 127 -999 78 7.8
2009-09-30 06:34:14 51°13.664 2°55.96 127 0.1 1 7.8
2009-09-30 06:34:19 51°13.664 2°55.96 127 -999 352 7.8
2009-09-30 06:34:24 51°13.663 2°55.96 126.9 -999 249 7.8
2009-09-30 06:34:29 51°13.663 2°55.96 126.9 -999 358 7.8
2009-09-30 06:34:34 51°13.663 2°55.96 126.9 -999 178 7.8
2009-09-30 06:34:39 51°13.663 2°55.96 126.9 -999 231 7.8
2009-09-30 06:34:43 51°13.663 2°55.96 126.9 -999 23 7.9
2009-09-30 06:34:48 51°13.662 2°55.96 126.8 0.1 185 7.8
2009-09-30 06:34:54 51°13.663 2°55.96 126.7 -999 99 7.8
2009-09-30 06:34:59 51°13.663 2°55.96 126.7 -999 176 7.8
2009-09-30 06:35:04 51°13.663 2°55.96 126.7 0.1 168 7.9
2009-09-30 06:35:09 51°13.663 2°55.96 126.7 -999 122 7.9
2009-09-30 06:35:14 51°13.663 2°55.96 126.7 -999 213 7.9
2009-09-30 06:35:19 51°13.663 2°55.96 126.7 -999 333 7.9
2009-09-30 06:35:24 51°13.663 2°55.96 126.7 -999 348 7.9
2009-09-30 06:35:28 51°13.663 2°55.96 126.7 -999 21 7.9
2009-09-30 06:35:34 51°13.663 2°55.96 126.7 0.1 199 7.9
2009-09-30 06:35:39 51°13.663 2°55.96 126.7 -999 225 7.8
2009-09-30 06:35:44 51°13.663 2°55.96 126.7 -999 204 7.9
2009-09-30 06:35:49 51°13.663 2°55.96 126.7 -999 33 7.9
2009-09-30 06:35:54 51°13.663 2°55.96 126.6 0.1 9 7.8
2009-09-30 06:35:59 51°13.663 2°55.96 126.6 -999 351 7.9
2009-09-30 06:36:04 51°13.663 2°55.96 126.6 -999 185 7.8
2009-09-30 06:36:09 51°13.663 2°55.96 126.6 -999 3 7.9
2009-09-30 06:36:14 51°13.663 2°55.96 126.6 0.1 355 7.9
2009-09-30 06:36:19 51°13.663 2°55.96 126.6 -999 348 7.9
2009-09-30 06:36:24 51°13.663 2°55.96 126.6 0.1 13 7.9
2009-09-30 06:36:28 51°13.663 2°55.96 126.7 -999 313 7.9
2009-09-30 06:36:34 51°13.663 2°55.96 126.7 -999 12 7.9
2009-09-30 06:36:39 51°13.662 2°55.96 126.7 -999 169 7.8
2009-09-30 06:36:44 51°13.662 2°55.96 126.7 -999 149 7.9
2009-09-30 06:36:49 51°13.662 2°55.96 126.8 -999 133 7.9
2009-09-30 06:36:54 51°13.662 2°55.96 126.9 -999 2 7.9
2009-09-30 06:36:59 51°13.662 2°55.96 126.9 -999 10 7.9
2009-09-30 06:37:04 51°13.662 2°55.96 126.9 -999 259 7.9
2009-09-30 06:37:09 51°13.662 2°55.96 126.9 -999 22 7.9
2009-09-30 06:37:14 51°13.661 2°55.96 126.9 0.1 1 7.9
2009-09-30 06:37:19 51°13.661 2°55.96 126.9 0.2 12 7.9
2009-09-30 06:37:24 51°13.661 2°55.96 126.9 0.1 7 7.9
2009-09-30 06:37:29 51°13.66 2°55.96 126.9 0.1 18 7.9
2009-09-30 06:37:34 51°13.658 2°55.96 126.9 -999 2 7.9
2009-09-30 06:37:39 51°13.66 2°55.96 126.9 -999 25 7.9
2009-09-30 06:37:44 51°13.662 2°55.96 126.8 -999 162 7.9
2009-09-30 06:37:48 51°13.661 2°55.96 126.8 0.1 196 7.9
2009-09-30 06:37:54 51°13.66 2°55.96 126.8 0.1 196 7.9
2009-09-30 06:37:59 51°13.66 2°55.96 126.8 -999 37 7.9
2009-09-30 06:38:04 51°13.66 2°55.96 126.8 -999 77 7.9
2009-09-30 06:38:09 51°13.661 2°55.96 126.8 0.1 11 7.9
2009-09-30 06:38:14 51°13.663 2°55.96 126.7 -999 303 7.9
2009-09-30 06:38:19 51°13.664 2°55.96 126.7 -999 305 7.8
2009-09-30 06:38:24 51°13.665 2°55.96 126.7 -999 30 7.9
2009-09-30 06:38:29 51°13.666 2°55.96 126.7 0.1 328 7.9
2009-09-30 06:38:34 51°13.666 2°55.96 126.7 0.1 354 7.9
2009-09-30 06:38:39 51°13.666 2°55.96 126.7 -999 56 7.9
2009-09-30 06:38:44 51°13.665 2°55.96 126.7 -999 134 8.1
2009-09-30 06:38:49 51°13.664 2°55.96 126.7 0.1 214 7.9
2009-09-30 06:38:54 51°13.663 2°55.96 126.7 -999 347 7.9
2009-09-30 06:38:59 51°13.663 2°55.96 126.7 -999 278 7.9
2009-09-30 06:39:04 51°13.662 2°55.96 126.7 0.1 213 7.9
2009-09-30 06:39:09 51°13.662 2°55.96 126.7 -999 182 7.9
2009-09-30 06:39:14 51°13.661 2°55.96 126.8 0.1 20 7.9
2009-09-30 06:39:19 51°13.661 2°55.96 126.8 0.1 28 7.9
2009-09-30 06:39:24 51°13.66 2°55.96 126.8 -999 19 7.9
2009-09-30 06:39:28 51°13.66 2°55.96 126.8 -999 334 7.9
2009-09-30 06:39:34 51°13.66 2°55.96 126.8 0.1 212 7.9
2009-09-30 06:39:39 51°13.661 2°55.96 126.8 -999 28 7.9
2009-09-30 06:39:44 51°13.661 2°55.96 126.7 -999 22 7.9
2009-09-30 06:39:49 51°13.661 2°55.96 126.7 -999 200 7.9
2009-09-30 06:39:54 51°13.662 2°55.96 126.6 -999 301 7.9
2009-09-30 06:39:59 51°13.662 2°55.96 126.6 -999 83 7.9
2009-09-30 06:40:04 51°13.661 2°55.96 126.6 0.1 106 8
2009-09-30 06:40:09 51°13.661 2°55.96 126.7 0.1 99 7.9
2009-09-30 06:40:14 51°13.661 2°55.96 126.8 -999 248 7.9
2009-09-30 06:40:19 51°13.66 2°55.96 126.8 -999 178 7.9
2009-09-30 06:40:24 51°13.66 2°55.96 126.9 -999 260 7.9
2009-09-30 06:40:28 51°13.66 2°55.96 126.9 -999 208 7.9
2009-09-30 06:40:34 51°13.66 2°55.96 126.9 0.1 227 7.9
2009-09-30 06:40:39 51°13.66 2°55.96 126.9 -999 323 7.9
2009-09-30 06:40:44 51°13.66 2°55.96 126.9 -999 195 7.9
2009-09-30 06:40:49 51°13.66 2°55.96 126.9 -999 196 7.9
2009-09-30 06:40:54 51°13.661 2°55.96 126.9 0.1 25 7.9
2009-09-30 06:40:59 51°13.661 2°55.96 126.9 -999 210 7.9
2009-09-30 06:41:04 51°13.661 2°55.96 126.9 -999 222 7.9
2009-09-30 06:41:09 51°13.661 2°55.96 126.9 -999 6 7.9
2009-09-30 06:41:14 51°13.661 2°55.96 126.9 -999 143 7.9
2009-09-30 06:41:19 51°13.662 2°55.96 126.9 0.1 210 7.9
2009-09-30 06:41:24 51°13.662 2°55.96 126.9 -999 193 8
2009-09-30 06:41:29 51°13.662 2°55.96 126.9 -999 140 8
2009-09-30 06:41:34 51°13.662 2°55.96 126.9 0.1 185 7.9
2009-09-30 06:41:39 51°13.662 2°55.96 126.9 0.1 199 7.9
2009-09-30 06:41:44 51°13.662 2°55.96 126.9 0.1 158 8
2009-09-30 06:41:49 51°13.662 2°55.96 126.9 -999 59 8
2009-09-30 06:41:54 51°13.662 2°55.96 126.9 -999 252 8
2009-09-30 06:41:59 51°13.662 2°55.96 126.9 -999 260 8
2009-09-30 06:42:04 51°13.662 2°55.96 126.8 0.1 206 7.9
2009-09-30 06:42:09 51°13.662 2°55.96 126.8 -999 192 7.9
2009-09-30 06:42:14 51°13.662 2°55.96 126.7 -999 180 8
2009-09-30 06:42:19 51°13.662 2°55.96 126.7 -999 174 7.9
2009-09-30 06:42:24 51°13.662 2°55.96 126.7 -999 42 8
2009-09-30 06:42:29 51°13.662 2°55.96 126.7 -999 220 7.9
2009-09-30 06:42:34 51°13.662 2°55.96 126.7 0.1 190 8
2009-09-30 06:42:39 51°13.662 2°55.96 126.8 -999 177 7.9
2009-09-30 06:42:44 51°13.662 2°55.96 126.8 0.1 180 8
2009-09-30 06:42:48 51°13.662 2°55.96 126.8 -999 168 7.9
2009-09-30 06:42:54 51°13.661 2°55.96 126.8 0.1 178 7.9
2009-09-30 06:42:59 51°13.662 2°55.96 126.8 -999 235 8
2009-09-30 06:43:04 51°13.662 2°55.96 126.8 -999 242 -999
2009-09-30 06:43:09 51°13.662 2°55.96 126.8 -999 189 8
2009-09-30 06:43:14 51°13.661 2°55.96 126.8 0.1 175 7.9
2009-09-30 06:43:19 51°13.661 2°55.96 126.8 -999 152 -999
2009-09-30 06:43:24 51°13.662 2°55.96 126.8 -999 339 7.9
2009-09-30 06:43:29 51°13.662 2°55.96 126.8 -999 151 8
2009-09-30 06:43:34 51°13.662 2°55.96 126.8 -999 196 8
2009-09-30 06:43:39 51°13.662 2°55.96 126.8 -999 231 8
2009-09-30 06:43:44 51°13.662 2°55.96 126.8 -999 34 8
2009-09-30 06:43:49 51°13.662 2°55.96 126.8 -999 20 8
2009-09-30 06:43:54 51°13.662 2°55.96 126.8 0.1 358 8
2009-09-30 06:43:59 51°13.662 2°55.96 126.8 0.1 1 7.8
2009-09-30 06:44:04 51°13.662 2°55.96 126.8 0.1 174 8
2009-09-30 06:44:09 51°13.662 2°55.96 126.8 -999 23 8
2009-09-30 06:44:14 51°13.662 2°55.959 126.9 -999 209 8.2
2009-09-30 06:44:19 51°13.662 2°55.959 126.9 0.1 199 8
2009-09-30 06:44:24 51°13.662 2°55.959 126.9 0.1 189 8
2009-09-30 06:44:29 51°13.662 2°55.959 126.9 0.1 194 8
2009-09-30 06:44:34 51°13.662 2°55.96 126.9 -999 187 7.9
2009-09-30 06:44:39 51°13.662 2°55.96 126.9 -999 207 7.9
2009-09-30 06:44:44 51°13.662 2°55.959 127 -999 323 8
2009-09-30 06:44:49 51°13.663 2°55.96 127 0.2 15 8
2009-09-30 06:44:54 51°13.663 2°55.959 127 0.2 16 8
2009-09-30 06:44:59 51°13.663 2°55.959 127 -999 47 8
2009-09-30 06:45:04 51°13.662 2°55.959 127.1 0.1 197 8
2009-09-30 06:45:09 51°13.662 2°55.959 127.1 0.1 205 8
2009-09-30 06:45:14 51°13.662 2°55.959 127.1 0.1 192 7.9
2009-09-30 06:45:19 51°13.662 2°55.959 127.1 -999 152 8
2009-09-30 06:45:24 51°13.662 2°55.959 127.1 -999 56 8
2009-09-30 06:45:29 51°13.662 2°55.959 127.1 -999 345 8
2009-09-30 06:45:34 51°13.662 2°55.959 127.1 -999 350 8
2009-09-30 06:45:39 51°13.662 2°55.959 127.1 -999 308 8
2009-09-30 06:45:44 51°13.662 2°55.959 127.1 -999 355 8
2009-09-30 06:45:49 51°13.662 2°55.959 127.1 0.1 26 8
2009-09-30 06:45:54 51°13.662 2°55.959 127.1 -999 178 8
2009-09-30 06:45:59 51°13.662 2°55.959 127.1 0.1 28 8
2009-09-30 06:46:04 51°13.663 2°55.959 127.1 0.1 19 8
2009-09-30 06:46:09 51°13.663 2°55.959 127.1 0.1 354 8
2009-09-30 06:46:14 51°13.663 2°55.959 127.1 0.2 13 7.9
2009-09-30 06:46:19 51°13.663 2°55.959 127.1 -999 327 8
2009-09-30 06:46:24 51°13.663 2°55.959 127.1 -999 243 8
2009-09-30 06:46:28 51°13.663 2°55.959 127.1 -999 238 8
2009-09-30 06:46:34 51°13.663 2°55.959 127.1 -999 249 8
2009-09-30 06:46:39 51°13.663 2°55.959 127.1 0.1 342 8
2009-09-30 06:46:44 51°13.663 2°55.959 127.1 0.1 354 8
2009-09-30 06:46:48 51°13.663 2°55.959 127.1 -999 341 8
2009-09-30 06:46:54 51°13.663 2°55.959 127.1 -999 163 8
2009-09-30 06:46:59 51°13.663 2°55.959 127.1 0.1 120 8
2009-09-30 06:47:04 51°13.663 2°55.959 127.1 -999 141 8
2009-09-30 06:47:09 51°13.663 2°55.959 127.1 -999 286 8
2009-09-30 06:47:14 51°13.663 2°55.959 127.1 -999 9 8
2009-09-30 06:47:19 51°13.663 2°55.958 127.1 -999 228 8
2009-09-30 06:47:24 51°13.663 2°55.958 127.1 0.1 191 8
2009-09-30 06:47:29 51°13.663 2°55.958 127.1 0.1 190 8
2009-09-30 06:47:34 51°13.663 2°55.958 127.1 -999 158 8
2009-09-30 06:47:39 51°13.663 2°55.958 127.1 -999 322 8
2009-09-30 06:47:44 51°13.663 2°55.958 127.1 0.1 15 8
2009-09-30 06:47:48 51°13.663 2°55.958 127.1 0.1 17 8
2009-09-30 06:47:54 51°13.663 2°55.958 127.1 -999 17 8
2009-09-30 06:47:59 51°13.663 2°55.958 127.1 -999 6 8
2009-09-30 06:48:04 51°13.663 2°55.958 127.1 -999 9 8
2009-09-30 06:48:09 51°13.663 2°55.958 127.1 -999 348 8
2009-09-30 06:48:14 51°13.663 2°55.959 127.1 0.1 29 8
2009-09-30 06:48:19 51°13.663 2°55.958 127.1 -999 26 8
2009-09-30 06:48:24 51°13.663 2°55.958 127.1 0.1 351 8
2009-09-30 06:48:28 51°13.663 2°55.958 127 -999 31 8.1
2009-09-30 06:48:34 51°13.663 2°55.958 127 0.1 24 8
2009-09-30 06:48:39 51°13.663 2°55.958 127 0.1 22 8
2009-09-30 06:48:44 51°13.663 2°55.958 126.9 -999 4 -999
2009-09-30 06:48:49 51°13.663 2°55.958 126.8 -999 204 8
2009-09-30 06:48:54 51°13.663 2°55.958 126.8 0.1 194 8
2009-09-30 06:48:59 51°13.663 2°55.958 126.8 0.1 190 -999
2009-09-30 06:49:04 51°13.663 2°55.958 126.8 0.1 200 8
2009-09-30 06:49:09 51°13.663 2°55.958 126.7 -999 331 8.1
2009-09-30 06:49:14 51°13.663 2°55.958 126.7 -999 332 8
2009-09-30 06:49:19 51°13.663 2°55.958 126.7 -999 164 8.1
2009-09-30 06:49:24 51°13.663 2°55.958 126.7 -999 111 8
2009-09-30 06:49:29 51°13.663 2°55.958 126.7 -999 354 8
2009-09-30 06:49:34 51°13.663 2°55.958 126.7 -999 255 8
2009-09-30 06:49:39 51°13.663 2°55.958 126.7 -999 166 8.1
2009-09-30 06:49:44 51°13.663 2°55.958 126.6 -999 58 8.1
2009-09-30 06:49:49 51°13.663 2°55.958 126.6 -999 5 8
2009-09-30 06:49:54 51°13.663 2°55.958 126.5 -999 347 8
2009-09-30 06:49:59 51°13.663 2°55.958 126.5 -999 49 8
2009-09-30 06:50:04 51°13.663 2°55.958 126.5 -999 49 8.1
2009-09-30 06:50:09 51°13.663 2°55.958 126.5 -999 181 8.1
2009-09-30 06:50:14 51°13.663 2°55.958 126.5 -999 309 8.1
2009-09-30 06:50:19 51°13.663 2°55.958 126.5 -999 72 8
2009-09-30 06:50:24 51°13.663 2°55.958 126.5 0.1 29 8.1
2009-09-30 06:50:29 51°13.662 2°55.958 126.5 -999 260 8
2009-09-30 06:50:34 51°13.662 2°55.958 126.5 0.1 201 8
2009-09-30 06:50:39 51°13.662 2°55.958 126.5 -999 197 8
2009-09-30 06:50:44 51°13.663 2°55.959 126.5 -999 49 8
2009-09-30 06:50:49 51°13.663 2°55.959 126.5 -999 10 8
2009-09-30 06:50:54 51°13.663 2°55.959 126.5 -999 213 8
2009-09-30 06:50:59 51°13.662 2°55.958 126.5 0.1 207 8
2009-09-30 06:51:04 51°13.662 2°55.958 126.5 -999 204 8
2009-09-30 06:51:09 51°13.662 2°55.959 126.5 -999 165 8.1
2009-09-30 06:51:14 51°13.662 2°55.959 126.5 -999 52 8
2009-09-30 06:51:19 51°13.662 2°55.959 126.5 -999 243 8
2009-09-30 06:51:24 51°13.662 2°55.959 126.6 -999 30 8
2009-09-30 06:51:29 51°13.662 2°55.959 126.6 0.1 9 8
2009-09-30 06:51:34 51°13.662 2°55.959 126.6 -999 -999 8
2009-09-30 06:51:39 51°13.662 2°55.959 126.6 -999 28 8
2009-09-30 06:51:44 51°13.662 2°55.959 126.6 -999 66 8
2009-09-30 06:51:49 51°13.662 2°55.959 126.6 0.1 198 8
2009-09-30 06:51:54 51°13.662 2°55.959 126.6 0.1 188 8
2009-09-30 06:51:59 51°13.662 2°55.959 126.6 -999 171 8
2009-09-30 06:52:04 51°13.662 2°55.959 126.5 -999 172 8
2009-09-30 06:52:09 51°13.662 2°55.959 126.5 0.1 161 8
2009-09-30 06:52:14 51°13.662 2°55.959 126.4 0.1 36 8.1
2009-09-30 06:52:19 51°13.662 2°55.959 126.4 -999 141 8
2009-09-30 06:52:24 51°13.662 2°55.959 126.4 -999 4 8
2009-09-30 06:52:29 51°13.662 2°55.959 126.4 -999 48 8
2009-09-30 06:52:34 51°13.662 2°55.959 126.4 -999 217 8
2009-09-30 06:52:39 51°13.662 2°55.959 126.4 0.1 20 8
2009-09-30 06:52:44 51°13.662 2°55.959 126.4 0.1 13 8
2009-09-30 06:52:49 51°13.662 2°55.959 126.5 -999 212 8
2009-09-30 06:52:54 51°13.662 2°55.959 126.5 -999 192 8
2009-09-30 06:52:59 51°13.662 2°55.959 126.5 -999 209 8
2009-09-30 06:53:04 51°13.662 2°55.959 126.5 -999 256 8
2009-09-30 06:53:09 51°13.663 2°55.959 126.5 0.1 306 8
2009-09-30 06:53:14 51°13.663 2°55.959 126.5 -999 22 8
2009-09-30 06:53:19 51°13.662 2°55.959 126.5 -999 319 8
2009-09-30 06:53:24 51°13.662 2°55.959 126.5 0.1 19 8
2009-09-30 06:53:29 51°13.662 2°55.959 126.6 0.1 169 8
2009-09-30 06:53:34 51°13.662 2°55.959 126.6 -999 281 8
2009-09-30 06:53:39 51°13.662 2°55.959 126.6 -999 6 8
2009-09-30 06:53:44 51°13.662 2°55.959 126.6 0.1 30 8
2009-09-30 06:53:49 51°13.662 2°55.959 126.6 -999 22 8
2009-09-30 06:53:54 51°13.662 2°55.959 126.6 -999 248 8
2009-09-30 06:53:59 51°13.662 2°55.959 126.6 -999 45 8.1
2009-09-30 06:54:04 51°13.662 2°55.959 126.6 -999 124 8
2009-09-30 06:54:09 51°13.662 2°55.959 126.6 0.1 171 8.1
2009-09-30 06:54:14 51°13.662 2°55.959 126.6 -999 190 8
2009-09-30 06:54:19 51°13.662 2°55.959 126.6 -999 44 8.1
2009-09-30 06:54:24 51°13.662 2°55.959 126.7 -999 158 8.3
2009-09-30 06:54:29 51°13.662 2°55.96 126.7 0.1 162 8.1
2009-09-30 06:54:34 51°13.662 2°55.959 126.7 0.1 201 8.1
2009-09-30 06:54:39 51°13.663 2°55.959 126.7 -999 189 8.1
2009-09-30 06:54:44 51°13.663 2°55.96 126.7 0.1 197 8.1
2009-09-30 06:54:49 51°13.663 2°55.96 126.8 -999 254 8.1
2009-09-30 06:54:54 51°13.663 2°55.96 126.8 0.1 191 8
2009-09-30 06:54:59 51°13.663 2°55.96 126.6 0.1 176 8
2009-09-30 06:55:04 51°13.663 2°55.96 126.6 -999 8 8
2009-09-30 06:55:09 51°13.663 2°55.96 126.6 0.1 1 8.1
2009-09-30 06:55:14 51°13.663 2°55.96 126.7 0.1 28 8.2
2009-09-30 06:55:19 51°13.663 2°55.96 126.7 0.1 14 8.2
2009-09-30 06:55:24 51°13.663 2°55.96 126.8 0.1 25 8.1
2009-09-30 06:55:29 51°13.663 2°55.96 126.8 0.1 6 8
2009-09-30 06:55:34 51°13.664 2°55.959 126.8 -999 10 8
2009-09-30 06:55:39 51°13.664 2°55.959 126.8 -999 325 8
2009-09-30 06:55:44 51°13.664 2°55.959 126.8 0.1 12 8
2009-09-30 06:55:48 51°13.664 2°55.959 126.7 -999 45 8.1
2009-09-30 06:55:54 51°13.664 2°55.959 126.7 -999 233 8
2009-09-30 06:55:59 51°13.664 2°55.959 126.7 -999 92 8
2009-09-30 06:56:04 51°13.664 2°55.959 126.7 0.1 48 8
2009-09-30 06:56:09 51°13.664 2°55.959 126.7 0.1 17 8
2009-09-30 06:56:14 51°13.664 2°55.959 126.7 0.1 4 8
2009-09-30 06:56:19 51°13.664 2°55.959 126.7 -999 15 8
2009-09-30 06:56:24 51°13.664 2°55.959 126.7 -999 5 8.1
2009-09-30 06:56:29 51°13.664 2°55.959 126.7 -999 11 8.1
2009-09-30 06:56:34 51°13.664 2°55.959 126.6 -999 193 8
2009-09-30 06:56:39 51°13.664 2°55.959 126.6 -999 196 8.1
2009-09-30 06:56:44 51°13.664 2°55.959 126.6 -999 337 8.1
2009-09-30 06:56:49 51°13.664 2°55.959 126.6 -999 2 -999
2009-09-30 06:56:54 51°13.664 2°55.959 126.7 -999 7 8
2009-09-30 06:56:59 51°13.664 2°55.959 126.7 0.1 235 8.1
2009-09-30 06:57:04 51°13.664 2°55.959 126.7 0.1 217 8.1
2009-09-30 06:57:09 51°13.664 2°55.959 126.7 -999 177 8.1
2009-09-30 06:57:14 51°13.664 2°55.959 126.7 -999 53 8.1
2009-09-30 06:57:19 51°13.664 2°55.959 126.7 -999 29 8.1
2009-09-30 06:57:24 51°13.664 2°55.959 126.7 -999 35 8.1
2009-09-30 06:57:28 51°13.664 2°55.959 126.8 -999 65 8.1
2009-09-30 06:57:33 51°13.664 2°55.959 127 0.1 112 8.1
2009-09-30 06:57:39 51°13.664 2°55.96 127.2 0.1 152 8.1
2009-09-30 06:57:44 51°13.664 2°55.959 127.5 -999 220 8.1
2009-09-30 06:57:49 51°13.664 2°55.959 128 0.1 205 8.1
2009-09-30 06:57:54 51°13.664 2°55.959 128.5 0.1 207 8.1
2009-09-30 06:57:59 51°13.664 2°55.959 129.1 0.1 244 8.1
2009-09-30 06:58:04 51°13.664 2°55.96 129.7 -999 346 8.1
2009-09-30 06:58:09 51°13.663 2°55.959 130 -999 284 8.1
2009-09-30 06:58:14 51°13.663 2°55.959 130 0.1 228 8.1
2009-09-30 06:58:19 51°13.663 2°55.96 130.1 -999 207 8.1
2009-09-30 06:58:24 51°13.663 2°55.96 130.2 -999 15 8.1
2009-09-30 06:58:29 51°13.663 2°55.96 130.4 0.1 22 8.1
2009-09-30 06:58:34 51°13.663 2°55.96 130.4 -999 23 8.2
2009-09-30 06:58:39 51°13.663 2°55.96 130.5 0.1 56 8.2
2009-09-30 06:58:44 51°13.663 2°55.96 130.5 0.1 47 8.2
2009-09-30 06:58:49 51°13.663 2°55.96 130.5 0.1 56 8.1
2009-09-30 06:58:54 51°13.663 2°55.96 130.1 -999 55 8.2
2009-09-30 06:58:59 51°13.663 2°55.96 129.6 0.1 75 8.1
2009-09-30 06:59:04 51°13.663 2°55.961 128.8 0.1 91 8.1
2009-09-30 06:59:09 51°13.663 2°55.961 127.8 0.1 144 8.1
2009-09-30 06:59:14 51°13.662 2°55.96 126.4 0.1 193 8.4
2009-09-30 06:59:19 51°13.662 2°55.96 125.3 0.1 202 8.1
2009-09-30 06:59:24 51°13.662 2°55.96 124.4 0.2 198 8.1
2009-09-30 06:59:29 51°13.662 2°55.961 123.5 0.1 178 8.1
2009-09-30 06:59:34 51°13.662 2°55.961 122.4 -999 57 8.2
2009-09-30 06:59:39 51°13.662 2°55.96 121.2 0.1 212 8.2
2009-09-30 06:59:44 51°13.662 2°55.96 119.8 0.1 190 8.2
2009-09-30 06:59:49 51°13.662 2°55.96 119 0.1 193 8.2
2009-09-30 06:59:54 51°13.662 2°55.96 117.8 0.1 220 8.2
2009-09-30 06:59:59 51°13.662 2°55.96 116.8 0.1 257 8.2
2009-09-30 07:00:04 51°13.662 2°55.959 115.9 0.2 279 8.2
2009-09-30 07:00:09 51°13.662 2°55.958 115.2 0.4 279 8.2
2009-09-30 07:00:14 51°13.662 2°55.957 114.9 0.7 286 8.3
2009-09-30 07:00:19 51°13.663 2°55.955 114.8 0.9 294 8.3
2009-09-30 07:00:24 51°13.664 2°55.953 114.8 1.3 294 8.2
2009-09-30 07:00:29 51°13.664 2°55.95 115.4 1.5 295 8.3
2009-09-30 07:00:34 51°13.665 2°55.946 116.1 1.7 295 6.8
2009-09-30 07:00:39 51°13.667 2°55.942 116.6 2 298 -999
2009-09-30 07:00:45 51°13.668 2°55.937 116.9 2.1 299 -999
2009-09-30 07:00:51 51°13.67 2°55.931 117 2.3 299 -999
2009-09-30 07:00:57 51°13.672 2°55.925 116.8 2.5 295 -999
2009-09-30 07:01:02 51°13.674 2°55.92 116.3 2.6 296 -999
2009-09-30 07:01:08 51°13.675 2°55.914 115.8 2.7 295 -999
2009-09-30 07:01:12 51°13.677 2°55.909 115.1 2.8 294 -999
2009-09-30 07:01:17 51°13.678 2°55.904 113.8 2.8 294 -999
2009-09-30 07:01:23 51°13.68 2°55.897 112.6 2.9 294 -999
2009-09-30 07:01:28 51°13.682 2°55.891 111.2 2.9 293 -999
2009-09-30 07:01:32 51°13.682 2°55.886 109.9 2.9 290 -999
2009-09-30 07:01:37 51°13.684 2°55.879 108.4 3 290 -999
2009-09-30 07:01:43 51°13.685 2°55.872 107.2 3 289 -999
2009-09-30 07:01:48 51°13.686 2°55.865 105.4 3 289 -999
2009-09-30 07:01:53 51°13.687 2°55.858 104 3.1 285 -999
2009-09-30 07:01:57 51°13.688 2°55.853 102.4 3.1 283 -999
2009-09-30 07:02:03 51°13.689 2°55.845 101 3 281 -999
2009-09-30 07:02:08 51°13.69 2°55.839 99.1 3 280 -999
2009-09-30 07:02:13 51°13.691 2°55.833 97.3 2.9 278 -999
2009-09-30 07:02:17 51°13.691 2°55.828 95.7 2.9 277 -999
2009-09-30 07:02:23 51°13.692 2°55.821 94.4 2.7 275 -999
2009-09-30 07:02:28 51°13.692 2°55.815 92.8 2.7 273 -999
2009-09-30 07:02:33 51°13.692 2°55.809 90.8 2.5 274 -999
2009-09-30 07:02:38 51°13.692 2°55.804 89.2 2.4 273 -999
2009-09-30 07:02:43 51°13.692 2°55.798 87.9 2.5 271 12.4
2009-09-30 07:02:48 51°13.692 2°55.793 86.5 2.4 270 -999
2009-09-30 07:02:52 51°13.692 2°55.789 85.1 2.3 269 -999
2009-09-30 07:02:58 51°13.692 2°55.783 83.6 2.2 266 -999
2009-09-30 07:03:02 51°13.692 2°55.779 82 2.1 267 12.9
2009-09-30 07:03:07 51°13.692 2°55.775 80.9 2 265 13.1
2009-09-30 07:03:12 51°13.691 2°55.771 80.2 1.7 264 13
2009-09-30 07:03:17 51°13.691 2°55.769 79 1 269 13
2009-09-30 07:03:22 51°13.692 2°55.769 77 0.3 305 13
2009-09-30 07:03:27 51°13.693 2°55.77 73.4 0.6 32 13
2009-09-30 07:03:32 51°13.694 2°55.773 67.1 1.3 47 13.2
2009-09-30 07:03:36 51°13.696 2°55.775 59.4 1.8 41 13.3
2009-09-30 07:03:41 51°13.698 2°55.778 50.9 2.1 39 13.3
2009-09-30 07:03:46 51°13.701 2°55.78 42.5 2 29 13.1
2009-09-30 07:03:51 51°13.703 2°55.782 35.1 1.8 28 13
2009-09-30 07:03:56 51°13.705 2°55.783 30.8 1.5 24 13
2009-09-30 07:04:01 51°13.706 2°55.784 27.7 1 31 13.1
2009-09-30 07:04:05 51°13.706 2°55.784 24.3 0.5 27 13.2
2009-09-30 07:04:10 51°13.706 2°55.784 20.8 0.1 126 13.2
2009-09-30 07:04:15 51°13.706 2°55.784 17.9 0.5 182 13.2
2009-09-30 07:04:20 51°13.704 2°55.784 15.3 0.8 189 13
2009-09-30 07:04:25 51°13.703 2°55.784 13.2 0.8 184 13.1
2009-09-30 07:04:29 51°13.702 2°55.784 11.6 0.7 185 13
2009-09-30 07:04:34 51°13.701 2°55.784 10.8 0.6 177 13
2009-09-30 07:04:40 51°13.701 2°55.784 9.9 0.2 180 -999
2009-09-30 07:04:45 51°13.701 2°55.784 8.1 0.4 8 -999
2009-09-30 07:04:52 51°13.703 2°55.784 5 0.9 -999 -999
2009-09-30 07:04:57 51°13.706 2°55.783 0.1 1.4 354 -999
2009-09-30 07:05:03 51°13.709 2°55.782 354.3 1.9 347 4.8
2009-09-30 07:05:07 51°13.711 2°55.781 348.9 2.1 341 13.5
2009-09-30 07:05:12 51°13.714 2°55.779 343.2 2.2 336 13.5
2009-09-30 07:05:17 51°13.716 2°55.776 336.2 2.4 332 13.4
2009-09-30 07:05:22 51°13.719 2°55.773 330.2 2.3 326 13.6
2009-09-30 07:05:27 51°13.722 2°55.77 325.6 2.2 326 13.3
2009-09-30 07:05:32 51°13.724 2°55.767 322.3 2.4 321 13.7
2009-09-30 07:05:36 51°13.727 2°55.763 319.8 2.7 320 13
2009-09-30 07:05:41 51°13.73 2°55.759 318 3 318 12.7
2009-09-30 07:05:46 51°13.733 2°55.754 316.9 3.2 317 12.5
2009-09-30 07:05:51 51°13.736 2°55.749 316.5 3.5 316 12.5
2009-09-30 07:05:56 51°13.74 2°55.743 316.5 3.7 316 12.1
2009-09-30 07:06:01 51°13.744 2°55.738 317.2 3.9 317 11.9
2009-09-30 07:06:05 51°13.748 2°55.733 317.5 4.1 316 11.7
2009-09-30 07:06:10 51°13.752 2°55.726 317.9 4.3 318 11.5
2009-09-30 07:06:15 51°13.757 2°55.72 318.8 4.4 318 11.6
2009-09-30 07:06:20 51°13.761 2°55.713 319.8 4.5 319 11.6
2009-09-30 07:06:25 51°13.766 2°55.707 320.6 4.6 319 11.7
2009-09-30 07:06:29 51°13.77 2°55.701 321.8 4.7 321 11.7
2009-09-30 07:06:34 51°13.776 2°55.695 323.5 4.8 322 11.5
2009-09-30 07:06:39 51°13.781 2°55.689 324.9 4.9 324 11.6
2009-09-30 07:06:44 51°13.787 2°55.682 325.9 5 324 11.7
2009-09-30 07:06:49 51°13.792 2°55.675 326.8 5.1 325 11.6
2009-09-30 07:06:54 51°13.798 2°55.668 327.9 5.3 326 11.5
2009-09-30 07:06:59 51°13.805 2°55.662 328.9 5.4 328 11.6
2009-09-30 07:07:04 51°13.811 2°55.656 330.1 5.5 328 11.8
2009-09-30 07:07:09 51°13.818 2°55.649 331.1 5.6 330 11.8
2009-09-30 07:07:14 51°13.825 2°55.643 332.7 5.7 331 11.5
2009-09-30 07:07:19 51°13.832 2°55.637 333.5 5.7 331 11.4
2009-09-30 07:07:24 51°13.839 2°55.632 334.7 5.8 333 11.8
2009-09-30 07:07:29 51°13.846 2°55.625 335 5.9 332 11.4
2009-09-30 07:07:34 51°13.853 2°55.619 335 6 333 11.7
2009-09-30 07:07:39 51°13.861 2°55.613 335 6 332 11.8
2009-09-30 07:07:44 51°13.868 2°55.607 335 6.1 333 12.1
2009-09-30 07:07:49 51°13.875 2°55.6 335 6.1 332 12.1
2009-09-30 07:07:54 51°13.883 2°55.594 335.5 6.2 333 11.9
2009-09-30 07:07:59 51°13.891 2°55.588 335.8 6.2 333 11.9
2009-09-30 07:08:04 51°13.899 2°55.582 336.1 6.3 334 11.9
2009-09-30 07:08:09 51°13.907 2°55.576 336.8 6.2 334 12.1
2009-09-30 07:08:14 51°13.915 2°55.57 336.7 6.3 334 12
2009-09-30 07:08:19 51°13.923 2°55.564 336.4 6.3 334 12.1
2009-09-30 07:08:24 51°13.931 2°55.558 336.9 6.4 335 12.1
2009-09-30 07:08:29 51°13.939 2°55.552 337 6.4 335 12
2009-09-30 07:08:34 51°13.947 2°55.546 336.8 6.5 335 12
2009-09-30 07:08:39 51°13.955 2°55.539 336.5 6.6 335 12.1
2009-09-30 07:08:44 51°13.964 2°55.533 336.8 6.7 335 11.9
2009-09-30 07:08:49 51°13.972 2°55.527 337.5 6.7 336 12.1
2009-09-30 07:08:54 51°13.98 2°55.521 337.2 6.8 335 12
2009-09-30 07:08:59 51°13.989 2°55.514 336.5 6.9 334 11.9
2009-09-30 07:09:04 51°13.998 2°55.507 336 6.9 335 12
2009-09-30 07:09:09 51°14.007 2°55.501 336.9 7 336 11.7
2009-09-30 07:09:14 51°14.016 2°55.494 337.6 7.1 335 11.8
2009-09-30 07:09:19 51°14.024 2°55.488 337.6 7.1 335 11.6
2009-09-30 07:09:24 51°14.033 2°55.481 337.8 7.1 336 11.5
2009-09-30 07:09:29 51°14.042 2°55.475 338.8 7.1 337 11.4
2009-09-30 07:09:34 51°14.051 2°55.469 339.1 7.1 336 11.5
2009-09-30 07:09:39 51°14.061 2°55.463 339 7.2 337 11.5
2009-09-30 07:09:44 51°14.07 2°55.456 339 7.2 337 11.6
2009-09-30 07:09:49 51°14.079 2°55.45 338.4 7.2 336 11.5
2009-09-30 07:09:54 51°14.088 2°55.444 338.3 7.1 336 11.8
2009-09-30 07:09:59 51°14.097 2°55.437 337.8 7.1 334 11.7
2009-09-30 07:10:04 51°14.106 2°55.43 337.6 7.1 336 11.8
2009-09-30 07:10:09 51°14.115 2°55.423 337.2 7.1 334 11.5
2009-09-30 07:10:14 51°14.123 2°55.416 336.1 7.1 333 11.8
2009-09-30 07:10:19 51°14.132 2°55.409 335.4 7.1 333 11.5
2009-09-30 07:10:24 51°14.141 2°55.401 334.4 7.1 331 11.4
2009-09-30 07:10:29 51°14.149 2°55.393 333 7.1 330 11.8
2009-09-30 07:10:34 51°14.158 2°55.385 332.3 7.1 330 11.9
2009-09-30 07:10:39 51°14.166 2°55.377 331.2 7 328 11.7
2009-09-30 07:10:44 51°14.174 2°55.368 330.3 7.1 326 11.7
2009-09-30 07:10:49 51°14.182 2°55.359 328.4 7.1 325 11.6
2009-09-30 07:10:54 51°14.19 2°55.35 326.4 7.2 323 11.6
2009-09-30 07:10:59 51°14.198 2°55.34 325 7.2 323 11.6
2009-09-30 07:11:04 51°14.205 2°55.329 323.1 7.2 319 11.9
2009-09-30 07:11:09 51°14.213 2°55.319 321.9 7.2 320 11.9
2009-09-30 07:11:14 51°14.22 2°55.308 320.9 7.3 317 12
2009-09-30 07:11:19 51°14.228 2°55.296 319.2 7.4 316 11.9
2009-09-30 07:11:24 51°14.235 2°55.284 317.4 7.5 315 11.7
2009-09-30 07:11:29 51°14.242 2°55.272 315.9 7.6 313 11.6
2009-09-30 07:11:34 51°14.25 2°55.259 315.3 7.8 313 11.9
2009-09-30 07:11:39 51°14.257 2°55.246 315.1 7.9 312 11.9
2009-09-30 07:11:44 51°14.265 2°55.233 315.1 8 313 11.8
2009-09-30 07:11:49 51°14.272 2°55.219 314.3 8.2 311 11.7
2009-09-30 07:11:54 51°14.28 2°55.206 314.2 8.4 312 11.7
2009-09-30 07:11:59 51°14.288 2°55.192 314.3 8.4 311 11.6
2009-09-30 07:12:04 51°14.295 2°55.178 313.5 8.5 311 11.4
2009-09-30 07:12:09 51°14.303 2°55.163 312.3 8.6 309 11.2
2009-09-30 07:12:14 51°14.31 2°55.148 311.6 8.7 309 11.7
2009-09-30 07:12:19 51°14.318 2°55.133 311.5 8.8 308 11.6
2009-09-30 07:12:24 51°14.326 2°55.117 311 8.8 309 11.6
2009-09-30 07:12:29 51°14.334 2°55.102 311 8.9 310 11.7
2009-09-30 07:12:34 51°14.342 2°55.088 311.6 8.9 311 11.4
2009-09-30 07:12:39 51°14.349 2°55.072 310.5 9 309 11.3
2009-09-30 07:12:44 51°14.358 2°55.057 309.7 9 311 11.3
2009-09-30 07:12:49 51°14.366 2°55.043 312.2 9 313 10.9
2009-09-30 07:12:54 51°14.375 2°55.028 313.6 9 313 11
2009-09-30 07:12:59 51°14.384 2°55.014 314.1 9 314 11.1
2009-09-30 07:13:04 51°14.393 2°54.999 315 9.3 314 10.8
2009-09-30 07:13:09 51°14.402 2°54.985 316.2 9.3 315 10.9
2009-09-30 07:13:14 51°14.411 2°54.97 317 9.3 315 11.2
2009-09-30 07:13:19 51°14.42 2°54.954 316.7 9.6 314 11.1
2009-09-30 07:13:24 51°14.43 2°54.939 315.7 9.8 313 11
2009-09-30 07:13:29 51°14.439 2°54.922 314.7 10 312 11
2009-09-30 07:13:34 51°14.449 2°54.906 314.8 10.2 314 11.1
2009-09-30 07:13:39 51°14.459 2°54.89 316.2 10.5 316 11.1
2009-09-30 07:13:44 51°14.47 2°54.874 318 10.7 316 11.3
2009-09-30 07:13:49 51°14.481 2°54.858 319.5 10.8 317 10.9
2009-09-30 07:13:54 51°14.492 2°54.842 320 10.8 318 10.9
2009-09-30 07:13:59 51°14.503 2°54.825 319.2 10.9 316 11.1
2009-09-30 07:14:04 51°14.514 2°54.807 318.7 11.1 315 11.1
2009-09-30 07:14:09 51°14.524 2°54.79 318.2 11.1 314 10.7
2009-09-30 07:14:14 51°14.535 2°54.773 318 11.1 315 10.7
2009-09-30 07:14:19 51°14.546 2°54.755 318.6 11.1 315 10.9
2009-09-30 07:14:24 51°14.557 2°54.738 319.2 11.1 316 10.9
2009-09-30 07:14:29 51°14.568 2°54.72 319.5 11.2 315 10.7
2009-09-30 07:14:34 51°14.579 2°54.703 319.1 11.2 314 10.7
2009-09-30 07:14:39 51°14.59 2°54.685 318.4 11.2 315 10.7
2009-09-30 07:14:44 51°14.601 2°54.667 318.2 11.3 314 10.8
2009-09-30 07:14:49 51°14.612 2°54.65 318.2 11.3 315 10.4
2009-09-30 07:14:54 51°14.623 2°54.632 318.4 11.2 315 10.4
2009-09-30 07:14:59 51°14.634 2°54.614 318.2 11.2 314 10.8
2009-09-30 07:15:04 51°14.644 2°54.597 317.8 11.1 314 10.8
2009-09-30 07:15:09 51°14.655 2°54.579 317.7 11.1 314 10.6
2009-09-30 07:15:14 51°14.666 2°54.561 317.7 11.2 314 10.6
2009-09-30 07:15:19 51°14.676 2°54.543 317.5 11.1 314 10.9
2009-09-30 07:15:24 51°14.687 2°54.525 317.5 11.1 314 10.7
2009-09-30 07:15:29 51°14.698 2°54.508 318 11.1 315 10.7
2009-09-30 07:15:34 51°14.709 2°54.49 317.7 11.2 314 10.7
2009-09-30 07:15:39 51°14.72 2°54.473 317.7 11.1 314 10.9
2009-09-30 07:15:44 51°14.731 2°54.455 317.9 11.1 314 11
2009-09-30 07:15:49 51°14.742 2°54.438 318.1 11.1 316 10.6
2009-09-30 07:15:54 51°14.753 2°54.421 319.9 11.2 318 10.7
2009-09-30 07:15:59 51°14.765 2°54.404 320.4 11.1 317 10.8
2009-09-30 07:16:04 51°14.776 2°54.388 321.2 11.2 318 10.9
2009-09-30 07:16:09 51°14.788 2°54.372 322.1 11.2 319 10.7
2009-09-30 07:16:14 51°14.799 2°54.356 322.6 11.1 320 10.5
2009-09-30 07:16:19 51°14.811 2°54.341 323.1 11 320 10.8
2009-09-30 07:16:24 51°14.823 2°54.325 323.4 11 320 10.6
2009-09-30 07:16:29 51°14.835 2°54.309 323.8 10.9 321 10.9
2009-09-30 07:16:34 51°14.847 2°54.294 323.9 11 321 10.5
2009-09-30 07:16:39 51°14.859 2°54.279 324.1 11 320 10.3
2009-09-30 07:16:44 51°14.871 2°54.263 324.1 11 321 10.4
2009-09-30 07:16:49 51°14.882 2°54.248 324.5 10.9 321 10.3
2009-09-30 07:16:54 51°14.895 2°54.234 325.8 11 324 10.1
2009-09-30 07:16:59 51°14.907 2°54.219 326.2 11 323 9.8
2009-09-30 07:17:04 51°14.919 2°54.206 327.1 10.9 325 9.7
2009-09-30 07:17:09 51°14.931 2°54.191 327.6 10.9 323 9.8
2009-09-30 07:17:14 51°14.944 2°54.177 327.7 11 325 9.5
2009-09-30 07:17:19 51°14.956 2°54.163 328.5 10.9 324 9.6
2009-09-30 07:17:24 51°14.969 2°54.149 328.7 11 326 9.7
2009-09-30 07:17:29 51°14.981 2°54.135 329.1 11 325 9.6
2009-09-30 07:17:34 51°14.994 2°54.122 329.2 10.9 325 9.8
2009-09-30 07:17:39 51°15.007 2°54.108 329.7 10.9 326 10.1
2009-09-30 07:17:44 51°15.019 2°54.095 330.2 10.9 326 9.6
2009-09-30 07:17:49 51°15.032 2°54.081 329.7 10.9 326 9.8
2009-09-30 07:17:54 51°15.044 2°54.068 329.5 11 325 9.9
2009-09-30 07:17:59 51°15.056 2°54.053 329.3 10.8 324 9.6
2009-09-30 07:18:04 51°15.069 2°54.039 328.2 10.9 323 10.1
2009-09-30 07:18:09 51°15.08 2°54.023 326 11 319 9.9
2009-09-30 07:18:14 51°15.092 2°54.008 325.2 10.9 322 10.1
2009-09-30 07:18:19 51°15.103 2°53.992 324.5 10.9 317 10.2
2009-09-30 07:18:24 51°15.114 2°53.974 321.2 11 315 10.3
2009-09-30 07:18:29 51°15.124 2°53.957 318.7 11 314 10.2
2009-09-30 07:18:34 51°15.134 2°53.938 317.1 11 311 10.2
2009-09-30 07:18:39 51°15.144 2°53.92 315.7 10.9 310 10.2
2009-09-30 07:18:44 51°15.152 2°53.9 313 10.8 304 10.3
2009-09-30 07:18:49 51°15.159 2°53.879 307 10.8 300 10.2
2009-09-30 07:18:54 51°15.166 2°53.857 302.2 10.9 296 10.3
2009-09-30 07:18:59 51°15.173 2°53.835 300.5 10.9 294 10.2
2009-09-30 07:19:04 51°15.178 2°53.813 298.1 10.8 291 9.9
2009-09-30 07:19:09 51°15.182 2°53.789 292.8 10.9 287 10.2
2009-09-30 07:19:13 51°15.184 2°53.77 287.5 11 281 10.4
2009-09-30 07:19:19 51°15.188 2°53.742 286.1 11 283 10.5
2009-09-30 07:19:24 51°15.189 2°53.717 283.6 11.1 277 10.4
2009-09-30 07:19:29 51°15.192 2°53.692 281.7 11.2 279 10.3
2009-09-30 07:19:34 51°15.193 2°53.668 280.6 11.2 275 10.7
2009-09-30 07:19:39 51°15.195 2°53.643 279.2 11.2 276 10.8
2009-09-30 07:19:44 51°15.196 2°53.618 278.5 11.3 275 10.5
2009-09-30 07:19:49 51°15.197 2°53.593 277.2 11.3 273 10.5
2009-09-30 07:19:54 51°15.197 2°53.568 276.3 11.3 273 10.6
2009-09-30 07:19:59 51°15.198 2°53.543 275.1 11.4 272 10.6
2009-09-30 07:20:04 51°15.198 2°53.518 275.2 11.4 273 10.5
2009-09-30 07:20:09 51°15.199 2°53.492 275.1 11.4 271 10.7
2009-09-30 07:20:14 51°15.199 2°53.467 274.4 11.4 271 10.9
2009-09-30 07:20:19 51°15.2 2°53.442 275.2 11.4 272 10.8
2009-09-30 07:20:24 51°15.2 2°53.417 274.5 11.5 271 10.8
2009-09-30 07:20:29 51°15.2 2°53.391 273.9 11.5 270 10.7
2009-09-30 07:20:34 51°15.2 2°53.366 273.9 11.4 271 10.7
2009-09-30 07:20:39 51°15.201 2°53.341 274.1 11.4 271 10.7
2009-09-30 07:20:44 51°15.201 2°53.316 274.4 11.4 271 10.7
2009-09-30 07:20:49 51°15.201 2°53.29 274.1 11.4 271 10.7
2009-09-30 07:20:54 51°15.201 2°53.265 274.3 11.5 270 11.3
2009-09-30 07:20:59 51°15.201 2°53.24 274.3 11.5 270 11.2
2009-09-30 07:21:04 51°15.201 2°53.214 274.3 11.5 270 11.2
2009-09-30 07:21:09 51°15.201 2°53.189 273.5 11.5 270 11.1
2009-09-30 07:21:14 51°15.202 2°53.164 273.7 11.5 272 11.1
2009-09-30 07:21:19 51°15.202 2°53.138 274.2 11.5 272 11.2
2009-09-30 07:21:24 51°15.204 2°53.113 276 11.5 274 11.3
2009-09-30 07:21:29 51°15.204 2°53.088 276.6 11.5 272 11
2009-09-30 07:21:34 51°15.206 2°53.063 276.7 11.4 274 10.9
2009-09-30 07:21:39 51°15.207 2°53.037 277.5 11.3 275 11.3
2009-09-30 07:21:44 51°15.208 2°53.012 278.1 11.4 274 11.6
2009-09-30 07:21:49 51°15.21 2°52.987 278.4 11.4 275 11.4
2009-09-30 07:21:54 51°15.211 2°52.962 278.7 11.4 276 11.4
2009-09-30 07:21:59 51°15.213 2°52.937 279.1 11.4 275 11.5
2009-09-30 07:22:04 51°15.214 2°52.912 279.2 11.4 275 11.7
2009-09-30 07:22:09 51°15.216 2°52.887 279.6 11.4 276 11.4
2009-09-30 07:22:14 51°15.218 2°52.862 279.4 11.4 276 11.6
2009-09-30 07:22:19 51°15.219 2°52.837 279.4 11.5 276 11.4
2009-09-30 07:22:24 51°15.221 2°52.812 279.4 11.4 275 11.8
2009-09-30 07:22:29 51°15.223 2°52.787 279.9 11.4 277 11.6
2009-09-30 07:22:34 51°15.224 2°52.761 279.8 11.4 275 12
2009-09-30 07:22:39 51°15.226 2°52.736 279.7 11.4 276 11.6
2009-09-30 07:22:44 51°15.228 2°52.711 279.7 11.4 276 11.4
2009-09-30 07:22:44 51°15.228 2°52.711 279.7 11.4 276 11.4
2009-09-30 07:22:55 51°15.232 2°52.656 279.7 11.4 276 11.6
2009-09-30 07:23:00 51°15.234 2°52.632 279.7 11.3 276 11.7
2009-09-30 07:23:05 51°15.235 2°52.606 279.3 11.4 276 11.6
2009-09-30 07:23:09 51°15.236 2°52.586 279.4 11.4 276 11.6
2009-09-30 07:23:15 51°15.238 2°52.556 279.9 11.4 276 12
2009-09-30 07:23:20 51°15.241 2°52.531 280.5 11.4 277 11.7
2009-09-30 07:23:25 51°15.242 2°52.506 279.9 11.5 276 11.7
2009-09-30 07:23:30 51°15.244 2°52.481 279.7 11.4 277 11.6
2009-09-30 07:23:35 51°15.246 2°52.456 280.4 11.5 277 11.6
2009-09-30 07:23:40 51°15.248 2°52.431 280.7 11.4 277 12
2009-09-30 07:23:45 51°15.25 2°52.406 281 11.4 277 12
2009-09-30 07:23:50 51°15.252 2°52.381 281 11.5 277 12.2
2009-09-30 07:23:55 51°15.253 2°52.356 281 11.4 276 12.4
2009-09-30 07:24:00 51°15.255 2°52.331 280.6 11.4 277 12.1
2009-09-30 07:24:05 51°15.257 2°52.306 280.8 11.4 277 12.1
2009-09-30 07:24:10 51°15.259 2°52.28 280.3 11.4 276 12.2
2009-09-30 07:24:15 51°15.26 2°52.255 280.2 11.4 276 12.3
2009-09-30 07:24:20 51°15.262 2°52.23 279.8 11.4 275 12.1
2009-09-30 07:24:39 51°15.269 2°52.134 280.2 11.5 277 12.2
2009-09-30 07:24:44 51°15.271 2°52.109 280.3 11.5 276 12.2
2009-09-30 07:24:49 51°15.273 2°52.083 279.9 11.5 276 12.2
2009-09-30 07:24:53 51°15.274 2°52.063 279.7 11.5 276 12
2009-09-30 07:24:59 51°15.276 2°52.033 279.5 11.5 276 12.4
2009-09-30 07:25:04 51°15.278 2°52.007 279.5 11.5 276 12.4
2009-09-30 07:25:09 51°15.28 2°51.982 279.5 11.5 276 12.5
2009-09-30 07:25:14 51°15.282 2°51.957 279.5 11.5 277 12.3
2009-09-30 07:25:19 51°15.283 2°51.932 279.5 11.5 276 12.4
2009-09-30 07:25:24 51°15.285 2°51.906 279.9 11.5 277 12.4
2009-09-30 07:25:29 51°15.287 2°51.881 279.8 11.6 276 12.5
2009-09-30 07:25:34 51°15.288 2°51.856 279.9 11.5 276 12.6
2009-09-30 07:25:39 51°15.29 2°51.831 279.9 11.4 276 12.6
2009-09-30 07:25:44 51°15.293 2°51.806 280.2 11.5 277 12.6
2009-09-30 07:25:49 51°15.294 2°51.78 279.9 11.5 276 12.8
2009-09-30 07:25:54 51°15.296 2°51.755 279.9 11.5 277 12.8
2009-09-30 07:25:59 51°15.298 2°51.73 280.2 11.5 277 12.8
2009-09-30 07:26:04 51°15.3 2°51.704 280.2 11.6 278 12.8
2009-09-30 07:26:09 51°15.302 2°51.679 280.6 11.5 277 12.8
2009-09-30 07:26:14 51°15.304 2°51.654 280.9 11.6 278 12.8
2009-09-30 07:26:19 51°15.306 2°51.628 281.3 11.5 277 13
2009-09-30 07:26:24 51°15.308 2°51.603 281.5 11.5 278 13
2009-09-30 07:26:29 51°15.31 2°51.578 281.1 11.5 276 13.3
2009-09-30 07:26:34 51°15.312 2°51.552 280.8 11.5 276 13.1
2009-09-30 07:26:39 51°15.314 2°51.527 280.5 11.6 277 13.3
2009-09-30 07:26:44 51°15.316 2°51.502 280.5 11.6 277 13.6
2009-09-30 07:26:49 51°15.318 2°51.477 280.2 11.6 277 13.3
2009-09-30 07:26:54 51°15.319 2°51.451 280.2 11.5 277 13.2
2009-09-30 07:26:59 51°15.321 2°51.426 279.8 11.6 276 13.7
2009-09-30 07:27:04 51°15.323 2°51.401 279.8 11.5 276 13.5
2009-09-30 07:27:09 51°15.325 2°51.375 280.1 11.5 276 13.4
2009-09-30 07:27:14 51°15.326 2°51.35 279.8 11.5 276 13.3
2009-09-30 07:27:19 51°15.328 2°51.325 279.9 11.6 277 13.3
2009-09-30 07:27:24 51°15.33 2°51.299 279.9 11.6 277 13.5
2009-09-30 07:27:29 51°15.332 2°51.274 280 11.5 276 13.7
2009-09-30 07:27:34 51°15.334 2°51.249 280.2 11.5 277 13.5
2009-09-30 07:27:39 51°15.336 2°51.224 280.2 11.4 277 13.2
2009-09-30 07:27:44 51°15.337 2°51.199 279.8 11.4 276 13.5
2009-09-30 07:27:49 51°15.34 2°51.174 279.9 11.4 278 13.4
2009-09-30 07:27:54 51°15.341 2°51.15 279.7 11.3 277 13.3
2009-09-30 07:27:59 51°15.343 2°51.125 279.6 11.2 277 13.3
2009-09-30 07:28:04 51°15.345 2°51.1 279.6 11.2 276 13.6
2009-09-30 07:28:09 51°15.347 2°51.075 279.6 11.2 278 13.7
2009-09-30 07:28:14 51°15.349 2°51.051 279.9 11.3 277 13.4
2009-09-30 07:28:19 51°15.351 2°51.026 280 11.3 277 13.5
2009-09-30 07:28:24 51°15.353 2°51.002 280 11.2 276 13.7
2009-09-30 07:28:29 51°15.354 2°50.977 279.8 11.2 277 13.8
2009-09-30 07:28:34 51°15.356 2°50.952 280 11.2 277 13.7
2009-09-30 07:28:39 51°15.359 2°50.928 280.2 11.2 278 13.3
2009-09-30 07:28:44 51°15.36 2°50.903 280 11.2 277 13.7
2009-09-30 07:28:49 51°15.362 2°50.879 279.8 11.2 277 13.7
2009-09-30 07:28:54 51°15.364 2°50.854 280.1 11.2 277 13.8
2009-09-30 07:28:59 51°15.367 2°50.83 281 11.2 279 13.7
2009-09-30 07:29:04 51°15.369 2°50.805 281.4 11.2 278 13.6
2009-09-30 07:29:09 51°15.371 2°50.78 281.3 11.3 278 13.8
2009-09-30 07:29:14 51°15.373 2°50.756 281.7 11.2 278 13.7
2009-09-30 07:29:19 51°15.375 2°50.731 281.7 11.2 278 13.7
2009-09-30 07:29:24 51°15.378 2°50.707 281.5 11.2 278 13.7
2009-09-30 07:29:29 51°15.38 2°50.682 281.6 11.2 279 13.8
2009-09-30 07:29:34 51°15.382 2°50.657 281.8 11.3 279 13.7
2009-09-30 07:29:39 51°15.384 2°50.633 281.8 11.3 279 13.7
2009-09-30 07:29:44 51°15.387 2°50.608 282.1 11.2 278 13.8
2009-09-30 07:29:49 51°15.389 2°50.584 281 11.2 278 13.8
2009-09-30 07:29:54 51°15.389 2°50.559 278 11.3 272 13.7
2009-09-30 07:29:59 51°15.39 2°50.534 277 11.2 275 13.5
2009-09-30 07:30:04 51°15.39 2°50.509 275.2 11.2 269 13.7
2009-09-30 07:30:09 51°15.39 2°50.484 273.9 11.2 271 13.7
2009-09-30 07:30:14 51°15.39 2°50.459 273.1 11.3 269 13.8
2009-09-30 07:30:19 51°15.39 2°50.435 272.3 11.3 269 13.8
2009-09-30 07:30:24 51°15.389 2°50.41 271.5 11.3 268 13.7
2009-09-30 07:30:29 51°15.389 2°50.384 270.7 11.3 267 13.6
2009-09-30 07:30:34 51°15.388 2°50.36 270.7 11.4 268 13.8
2009-09-30 07:30:39 51°15.386 2°50.334 269.7 11.3 265 13.8
2009-09-30 07:30:44 51°15.385 2°50.31 268.9 11.3 266 13.8
2009-09-30 07:30:49 51°15.384 2°50.285 268.6 11.3 265 13.9
2009-09-30 07:30:54 51°15.382 2°50.26 268.8 11.3 265 13.9
2009-09-30 07:30:59 51°15.382 2°50.235 268.6 11.4 267 13.6
2009-09-30 07:31:04 51°15.38 2°50.21 268.7 11.4 265 14.2
2009-09-30 07:31:09 51°15.379 2°50.185 268.9 11.3 267 13.9
2009-09-30 07:31:14 51°15.378 2°50.16 269.2 11.3 265 14
2009-09-30 07:31:19 51°15.376 2°50.135 268.5 11.3 264 14
2009-09-30 07:31:24 51°15.375 2°50.11 267.3 11.3 265 13.6
2009-09-30 07:31:29 51°15.373 2°50.085 267.9 11.3 265 13.9
2009-09-30 07:31:34 51°15.372 2°50.06 267.9 11.4 265 13.5
2009-09-30 07:31:39 51°15.37 2°50.035 268.8 11.4 264 13.7
2009-09-30 07:31:44 51°15.369 2°50.01 268.5 11.3 265 13.9
2009-09-30 07:31:49 51°15.369 2°49.985 269.2 11.3 267 13.8
2009-09-30 07:31:54 51°15.367 2°49.96 268.6 11.4 264 13.8
2009-09-30 07:31:59 51°15.365 2°49.935 267.9 11.3 266 13.6
2009-09-30 07:32:04 51°15.363 2°49.91 267.7 11.4 263 13.9
2009-09-30 07:32:09 51°15.362 2°49.885 267.3 11.3 265 13.7
2009-09-30 07:32:14 51°15.36 2°49.861 267.1 11.3 262 13.9
2009-09-30 07:32:19 51°15.359 2°49.836 267 11.3 265 13.7
2009-09-30 07:32:24 51°15.357 2°49.811 267.3 11.3 264 13.6
2009-09-30 07:32:29 51°15.355 2°49.786 266.8 11.3 263 13.8
2009-09-30 07:32:34 51°15.354 2°49.761 267.1 11.3 265 13.7
2009-09-30 07:32:39 51°15.352 2°49.737 267.5 11.2 262 14
2009-09-30 07:32:44 51°15.351 2°49.712 267.6 11.2 265 14
2009-09-30 07:32:49 51°15.349 2°49.687 267.7 11.2 265 13.5
2009-09-30 07:32:54 51°15.348 2°49.662 267.2 11.3 263 13.8
2009-09-30 07:32:59 51°15.347 2°49.637 267.9 11.2 265 13.7
2009-09-30 07:33:04 51°15.345 2°49.613 267.6 11.3 265 13.7
2009-09-30 07:33:09 51°15.344 2°49.588 267.6 11.3 266 14.1
2009-09-30 07:33:14 51°15.342 2°49.563 268 11.2 265 14
2009-09-30 07:33:19 51°15.342 2°49.538 268.3 11.2 267 13.9
2009-09-30 07:33:24 51°15.34 2°49.513 268.9 11.3 266 13.7
2009-09-30 07:33:29 51°15.34 2°49.488 269.1 11.3 267 14
2009-09-30 07:33:34 51°15.339 2°49.464 269.4 11.2 267 13.9
2009-09-30 07:33:39 51°15.338 2°49.439 269.6 11.2 265 14
2009-09-30 07:33:44 51°15.337 2°49.414 268.8 11.2 267 14
2009-09-30 07:33:49 51°15.335 2°49.389 269.3 11.2 266 13.9
2009-09-30 07:33:54 51°15.334 2°49.365 268.4 11.2 265 14.1
2009-09-30 07:33:59 51°15.333 2°49.34 268.6 11.2 267 13.8
2009-09-30 07:34:04 51°15.332 2°49.316 268.4 11.2 264 13.9
2009-09-30 07:34:09 51°15.331 2°49.291 268 11.1 267 13.8
2009-09-30 07:34:14 51°15.33 2°49.266 268.6 11.2 265 13.9
2009-09-30 07:34:19 51°15.329 2°49.242 268.6 11.2 266 14
2009-09-30 07:34:24 51°15.328 2°49.217 269.4 11.1 266 14.1
2009-09-30 07:34:29 51°15.327 2°49.193 269.4 11.2 266 13.9
2009-09-30 07:34:34 51°15.326 2°49.168 268.9 11.2 266 13.9
2009-09-30 07:34:39 51°15.325 2°49.143 269 11.2 267 14
2009-09-30 07:34:44 51°15.324 2°49.119 269.3 11.1 266 14.3
2009-09-30 07:34:49 51°15.323 2°49.094 269.2 11.1 268 14.2
2009-09-30 07:34:54 51°15.322 2°49.07 268.6 11 267 13.9
2009-09-30 07:34:59 51°15.321 2°49.045 268.9 11.1 266 14
2009-09-30 07:35:04 51°15.32 2°49.021 268.6 11.1 266 14.1
2009-09-30 07:35:09 51°15.319 2°48.997 268.6 11.1 266 14.1
2009-09-30 07:35:14 51°15.318 2°48.972 268.4 11.1 266 14
2009-09-30 07:35:19 51°15.317 2°48.948 268 11.1 266 13.9
2009-09-30 07:35:24 51°15.316 2°48.923 268 11.1 266 14
2009-09-30 07:35:29 51°15.315 2°48.899 268.4 11.1 266 13.9
2009-09-30 07:35:34 51°15.314 2°48.874 268.6 11.2 267 13.8
2009-09-30 07:35:39 51°15.312 2°48.85 268.7 11.1 265 13.9
2009-09-30 07:35:44 51°15.311 2°48.825 268.1 11.2 266 13.9
2009-09-30 07:35:49 51°15.311 2°48.8 268.5 11.2 267 14
2009-09-30 07:35:54 51°15.309 2°48.776 269.4 11.1 267 14.1
2009-09-30 07:35:59 51°15.309 2°48.751 269.8 11.2 268 14.1
2009-09-30 07:36:04 51°15.308 2°48.726 269.8 11.2 267 13.9
2009-09-30 07:36:09 51°15.308 2°48.702 270 11.2 267 13.8
2009-09-30 07:36:14 51°15.307 2°48.677 270.5 11.2 267 14
2009-09-30 07:36:19 51°15.306 2°48.652 270 11.2 268 13.7
2009-09-30 07:36:24 51°15.305 2°48.628 269.2 11.2 265 13.7
2009-09-30 07:36:29 51°15.304 2°48.603 269.4 11.2 268 13.6
2009-09-30 07:36:34 51°15.303 2°48.579 269.6 11.1 267 13.5
2009-09-30 07:36:39 51°15.303 2°48.554 269.2 11.2 266 13.6
2009-09-30 07:36:44 51°15.302 2°48.53 269.2 11.2 266 13.5
2009-09-30 07:36:49 51°15.301 2°48.505 269.3 11.2 267 13.3
2009-09-30 07:36:54 51°15.3 2°48.48 269.6 11.2 267 13.2
2009-09-30 07:36:59 51°15.299 2°48.456 270 11.2 266 13.1
2009-09-30 07:37:04 51°15.298 2°48.431 270.1 11.2 268 12.8
2009-09-30 07:37:09 51°15.298 2°48.407 270.8 11.1 268 12.8
2009-09-30 07:37:14 51°15.297 2°48.382 270.3 11.1 267 12.7
2009-09-30 07:37:19 51°15.296 2°48.357 270.2 11.1 268 12.4
2009-09-30 07:37:24 51°15.296 2°48.333 270.8 11.1 268 12.4
2009-09-30 07:37:29 51°15.295 2°48.308 271 11.2 268 12.3
2009-09-30 07:37:34 51°15.295 2°48.283 270.8 11.2 267 12.2
2009-09-30 07:37:39 51°15.294 2°48.259 270.7 11.1 269 11.8
2009-09-30 07:37:44 51°15.293 2°48.234 270.2 11.1 266 11.9
2009-09-30 07:37:49 51°15.293 2°48.21 270.7 11.1 268 11.7
2009-09-30 07:37:54 51°15.292 2°48.185 270.6 11.1 266 11.8
2009-09-30 07:37:59 51°15.291 2°48.161 270.2 11.1 268 11.5
2009-09-30 07:38:04 51°15.291 2°48.136 269.7 11.1 267 11.4
2009-09-30 07:38:09 51°15.29 2°48.111 269.9 11.1 267 11.4
2009-09-30 07:38:14 51°15.289 2°48.087 269.8 11.1 266 11.4
2009-09-30 07:38:19 51°15.288 2°48.063 269.7 11.1 266 11.2
2009-09-30 07:38:24 51°15.287 2°48.038 269.6 11.1 267 11.1
2009-09-30 07:38:29 51°15.286 2°48.013 269.9 11.1 267 11
2009-09-30 07:38:34 51°15.285 2°47.989 270.1 11.1 267 11.2
2009-09-30 07:38:39 51°15.285 2°47.964 270.1 11.1 267 11.1
2009-09-30 07:38:44 51°15.284 2°47.94 270 11 267 10.9
2009-09-30 07:38:49 51°15.283 2°47.915 269 11.1 266 10.8
2009-09-30 07:38:54 51°15.282 2°47.891 268.6 11.1 266 10.9
2009-09-30 07:38:59 51°15.281 2°47.866 268.8 11.1 265 11
2009-09-30 07:39:04 51°15.279 2°47.842 267.9 11.1 265 10.9
2009-09-30 07:39:09 51°15.278 2°47.817 268.2 11 266 10.9
2009-09-30 07:39:14 51°15.276 2°47.793 268.4 11.1 263 11.1
2009-09-30 07:39:19 51°15.276 2°47.769 268.3 11.1 267 10.9
2009-09-30 07:39:24 51°15.274 2°47.744 267.9 11.2 264 11
2009-09-30 07:39:29 51°15.273 2°47.72 267.9 11.1 266 10.8
2009-09-30 07:39:34 51°15.272 2°47.695 268.6 11.1 265 10.7
2009-09-30 07:39:39 51°15.27 2°47.671 267.5 11.1 266 10.8
2009-09-30 07:39:44 51°15.27 2°47.647 267.9 11 266 11
2009-09-30 07:39:49 51°15.268 2°47.622 268.6 11.1 266 11
2009-09-30 07:39:54 51°15.267 2°47.598 268.3 11 267 10.8
2009-09-30 07:39:59 51°15.266 2°47.574 268.1 11.1 265 11.1
2009-09-30 07:40:04 51°15.265 2°47.549 268.6 11 267 10.9
2009-09-30 07:40:09 51°15.263 2°47.525 267.8 11.1 265 11
2009-09-30 07:40:14 51°15.263 2°47.501 268.7 11 268 11.2
2009-09-30 07:40:19 51°15.261 2°47.476 268.9 11.1 265 11.3
2009-09-30 07:40:24 51°15.261 2°47.452 269.2 11.1 268 11
2009-09-30 07:40:29 51°15.26 2°47.427 268.7 11.1 265 11.3
2009-09-30 07:40:34 51°15.259 2°47.403 268.6 11 267 11.2
2009-09-30 07:40:39 51°15.258 2°47.379 268.3 11 266 11.1
2009-09-30 07:40:44 51°15.257 2°47.354 268.3 11.1 266 11.3
2009-09-30 07:40:49 51°15.255 2°47.33 267.9 11.1 266 11.2
2009-09-30 07:40:54 51°15.254 2°47.305 268.5 11.1 266 11.3
2009-09-30 07:40:59 51°15.253 2°47.281 268.4 11.1 266 11.2
2009-09-30 07:41:04 51°15.252 2°47.256 268.6 11.1 265 11.5
2009-09-30 07:41:09 51°15.251 2°47.232 268.5 11.1 268 11.2
2009-09-30 07:41:14 51°15.25 2°47.207 268.6 11.1 265 11.5
2009-09-30 07:41:19 51°15.249 2°47.183 268.9 11.1 268 11.5
2009-09-30 07:41:24 51°15.249 2°47.158 268.8 11.1 267 11.5
2009-09-30 07:41:29 51°15.248 2°47.134 269 11.1 266 11.6
2009-09-30 07:41:34 51°15.247 2°47.109 269.6 11.1 268 11.6
2009-09-30 07:41:39 51°15.246 2°47.085 268.7 11.1 266 11.9
2009-09-30 07:41:44 51°15.245 2°47.06 269.3 11.1 267 12
2009-09-30 07:41:49 51°15.244 2°47.036 269.1 11.1 266 11.8
2009-09-30 07:41:54 51°15.244 2°47.012 269.5 11.1 268 12
2009-09-30 07:41:59 51°15.243 2°46.987 269.2 11.1 267 12.2
2009-09-30 07:42:04 51°15.242 2°46.963 269.5 11.1 266 12.3
2009-09-30 07:42:09 51°15.241 2°46.938 268.8 11.1 266 12.3
2009-09-30 07:42:14 51°15.24 2°46.914 269.6 11.1 266 12.4
2009-09-30 07:42:19 51°15.24 2°46.889 269.1 11.1 267 12.1
2009-09-30 07:42:24 51°15.239 2°46.865 268.7 11.1 266 12.4
2009-09-30 07:42:29 51°15.238 2°46.84 268.6 11.1 266 12.4
2009-09-30 07:42:34 51°15.237 2°46.816 269.1 11.1 265 12.6
2009-09-30 07:42:39 51°15.236 2°46.791 268.5 11.1 267 12.6
2009-09-30 07:42:44 51°15.235 2°46.767 268.9 11 267 12.7
2009-09-30 07:42:49 51°15.234 2°46.743 268.3 11 264 12.9
2009-09-30 07:42:54 51°15.234 2°46.718 269 11 269 13
2009-09-30 07:42:59 51°15.233 2°46.694 269.4 11 266 13
2009-09-30 07:43:04 51°15.233 2°46.67 269.5 11.1 268 13.1
2009-09-30 07:43:09 51°15.232 2°46.645 269.4 11.1 267 13.1
2009-09-30 07:43:14 51°15.231 2°46.621 269.5 11 268 13.2
2009-09-30 07:43:19 51°15.23 2°46.596 268.7 11.1 266 13.1
2009-09-30 07:43:24 51°15.23 2°46.572 269.2 11.1 268 13.4
2009-09-30 07:43:29 51°15.228 2°46.547 269.6 11.1 266 13.7
2009-09-30 07:43:34 51°15.229 2°46.523 270.3 11.1 270 13.4
2009-09-30 07:43:39 51°15.228 2°46.498 270.4 11.2 267 13.6
2009-09-30 07:43:44 51°15.228 2°46.474 270.6 11.1 270 13.7
2009-09-30 07:43:49 51°15.227 2°46.449 269.7 11.1 266 13.8
2009-09-30 07:43:54 51°15.227 2°46.425 269.8 11.1 270 13.8
2009-09-30 07:43:59 51°15.225 2°46.4 269.4 11.1 266 14
2009-09-30 07:44:04 51°15.225 2°46.376 269.4 11.1 268 14.1
2009-09-30 07:44:09 51°15.224 2°46.351 269 11.1 267 14.4
2009-09-30 07:44:14 51°15.224 2°46.327 269.4 11.1 268 14.3
2009-09-30 07:44:19 51°15.223 2°46.302 269 11.1 267 14.5
2009-09-30 07:44:24 51°15.222 2°46.278 269.4 11.1 267 14.7
2009-09-30 07:44:29 51°15.221 2°46.254 268.9 11.1 267 14.7
2009-09-30 07:44:34 51°15.221 2°46.229 269.1 11 268 14.8
2009-09-30 07:44:39 51°15.219 2°46.205 268.6 11.1 267 14.7
2009-09-30 07:44:44 51°15.219 2°46.18 268.8 11.1 267 15.1
2009-09-30 07:44:49 51°15.218 2°46.156 268.8 11.1 267 15.1
2009-09-30 07:44:54 51°15.217 2°46.131 268.6 11 268 15.2
2009-09-30 07:44:59 51°15.216 2°46.107 269.2 11.1 266 15.6
2009-09-30 07:45:04 51°15.216 2°46.082 269.1 11.1 269 15.2
2009-09-30 07:45:09 51°15.215 2°46.058 269.2 11.1 267 15.1
2009-09-30 07:45:14 51°15.215 2°46.034 270 11.1 268 15.4
2009-09-30 07:45:19 51°15.214 2°46.009 269.7 11.1 269 15.3
2009-09-30 07:45:24 51°15.213 2°45.984 269.5 11.1 267 15.4
2009-09-30 07:45:29 51°15.213 2°45.96 269 11.1 267 15.8
2009-09-30 07:45:34 51°15.212 2°45.936 269.3 11.1 268 15.6
2009-09-30 07:45:39 51°15.211 2°45.911 269.3 11.1 267 15.7
2009-09-30 07:45:44 51°15.211 2°45.887 269.5 11.1 270 15.8
2009-09-30 07:45:49 51°15.21 2°45.862 269.6 11 268 15.9
2009-09-30 07:45:54 51°15.209 2°45.838 268.8 11 266 16.3
2009-09-30 07:45:59 51°15.209 2°45.813 269.4 11.1 269 16.2
2009-09-30 07:46:04 51°15.207 2°45.789 269 11 265 16.2
2009-09-30 07:46:09 51°15.207 2°45.765 268.6 11 268 16.2
2009-09-30 07:46:14 51°15.204 2°45.741 265.6 11.1 260 16.5
2009-09-30 07:46:19 51°15.204 2°45.717 264.9 11 266 16.2
2009-09-30 07:46:24 51°15.2 2°45.693 263.3 11 259 16.3
2009-09-30 07:46:29 51°15.198 2°45.669 262.1 11 261 16.5
2009-09-30 07:46:34 51°15.195 2°45.645 261.6 11.1 260 16.6
2009-09-30 07:46:39 51°15.192 2°45.621 260.6 11 259 16.7
2009-09-30 07:46:44 51°15.189 2°45.597 260 11 258 16.7
2009-09-30 07:46:49 51°15.186 2°45.573 260.3 11.1 258 16.9
2009-09-30 07:46:54 51°15.184 2°45.548 262.1 11 262 16.7
2009-09-30 07:46:59 51°15.18 2°45.525 262 11 259 16.7
2009-09-30 07:47:04 51°15.178 2°45.5 261.8 11.1 261 16.9
2009-09-30 07:47:09 51°15.176 2°45.476 262.2 11 260 17
2009-09-30 07:47:14 51°15.173 2°45.452 262.4 11.1 261 17
2009-09-30 07:47:19 51°15.171 2°45.428 262.8 11 262 17
2009-09-30 07:47:24 51°15.169 2°45.404 262.9 11.1 261 17.2
2009-09-30 07:47:29 51°15.167 2°45.38 263.4 11 262 17.5
2009-09-30 07:47:34 51°15.164 2°45.356 263.5 11 261 17.2
2009-09-30 07:47:39 51°15.162 2°45.332 262.8 11 261 17.4
2009-09-30 07:47:44 51°15.16 2°45.308 263.8 11 262 17.3
2009-09-30 07:47:49 51°15.157 2°45.283 262.8 11 259 17.6
2009-09-30 07:47:54 51°15.156 2°45.259 263.5 11 265 17.5
2009-09-30 07:47:59 51°15.153 2°45.235 263.5 11 260 17.5
2009-09-30 07:48:04 51°15.151 2°45.211 263.5 11 264 17.6
2009-09-30 07:48:09 51°15.149 2°45.187 263.6 11 262 17.6
2009-09-30 07:48:14 51°15.147 2°45.163 263.6 11 262 17.8
2009-09-30 07:48:19 51°15.144 2°45.139 263.2 11 261 17.9
2009-09-30 07:48:24 51°15.143 2°45.115 263.5 11 262 17.7
2009-09-30 07:48:29 51°15.14 2°45.091 263.1 11.1 260 17.8
2009-09-30 07:48:34 51°15.138 2°45.067 263.6 11 262 17.6
2009-09-30 07:48:39 51°15.135 2°45.043 263.2 11 261 17.9
2009-09-30 07:48:44 51°15.134 2°45.018 263.5 11 263 18
2009-09-30 07:48:49 51°15.131 2°44.994 263.6 11.1 261 18.1
2009-09-30 07:48:54 51°15.129 2°44.97 263.5 11 262 18
2009-09-30 07:48:59 51°15.127 2°44.946 263.5 11.1 261 18
2009-09-30 07:49:04 51°15.125 2°44.922 263.5 11 262 18.2
2009-09-30 07:49:09 51°15.123 2°44.898 263.9 10.9 263 18.2
2009-09-30 07:49:14 51°15.12 2°44.873 263.3 11.1 262 18.2
2009-09-30 07:49:19 51°15.118 2°44.849 264.1 11 262 18.4
2009-09-30 07:49:24 51°15.116 2°44.825 264.1 11 262 18.2
2009-09-30 07:49:29 51°15.114 2°44.801 263.6 11.1 261 18.6
2009-09-30 07:49:34 51°15.112 2°44.776 264.3 11 263 18.4
2009-09-30 07:49:39 51°15.11 2°44.752 263.4 11.1 261 18.4
2009-09-30 07:49:44 51°15.108 2°44.728 264.3 11 265 18.4
2009-09-30 07:49:49 51°15.106 2°44.704 264.6 11.1 262 18.6
2009-09-30 07:49:54 51°15.104 2°44.68 264.3 10.9 263 18.5
2009-09-30 07:49:59 51°15.102 2°44.656 264.2 11 261 18.9
2009-09-30 07:50:04 51°15.1 2°44.632 264.1 11 263 18.8
2009-09-30 07:50:09 51°15.097 2°44.608 264.1 11 261 18.8
2009-09-30 07:50:14 51°15.095 2°44.584 263.7 11 262 19.2
2009-09-30 07:50:19 51°15.093 2°44.56 264.3 11 263 18.9
2009-09-30 07:50:24 51°15.091 2°44.536 263.8 11 262 19.3
2009-09-30 07:50:29 51°15.089 2°44.512 264.9 10.9 265 19.2
2009-09-30 07:50:34 51°15.087 2°44.488 263.6 11 260 19.1
2009-09-30 07:50:39 51°15.086 2°44.463 264.1 11 263 19.3
2009-09-30 07:50:44 51°15.083 2°44.439 264.3 11 262 19
2009-09-30 07:50:49 51°15.081 2°44.415 264.1 11 263 19.3
2009-09-30 07:50:54 51°15.08 2°44.391 264 11 262 19.2
2009-09-30 07:50:59 51°15.077 2°44.367 264.1 11.1 261 19.6
2009-09-30 07:51:04 51°15.075 2°44.343 264 11 264 19.5
2009-09-30 07:51:09 51°15.073 2°44.319 264.5 11 262 19.2
2009-09-30 07:51:14 51°15.071 2°44.295 264 11 263 19.3
2009-09-30 07:51:19 51°15.069 2°44.271 264.3 11 262 19.5
2009-09-30 07:51:24 51°15.067 2°44.247 264.3 11.1 263 19.4
2009-09-30 07:51:29 51°15.065 2°44.223 264.6 11 262 19.7
2009-09-30 07:51:34 51°15.062 2°44.199 264.1 11 262 19.6
2009-09-30 07:51:39 51°15.06 2°44.174 264.1 11.1 263 19.2
2009-09-30 07:51:44 51°15.058 2°44.15 264.5 11 262 19.4
2009-09-30 07:51:49 51°15.057 2°44.126 265.2 11 263 19.6
2009-09-30 07:51:54 51°15.054 2°44.101 264.9 11.2 261 19.8
2009-09-30 07:51:59 51°15.053 2°44.077 265.9 11.1 265 19.5
2009-09-30 07:52:04 51°15.051 2°44.053 265.5 11 261 19.6
2009-09-30 07:52:09 51°15.049 2°44.028 265 11 264 19.4
2009-09-30 07:52:14 51°15.047 2°44.004 264.3 11.1 262 19.5
2009-09-30 07:52:19 51°15.045 2°43.98 264.3 11 262 19.2
2009-09-30 07:52:24 51°15.043 2°43.956 264.1 11 261 19.3
2009-09-30 07:52:29 51°15.041 2°43.932 263.7 11.1 262 19.3
2009-09-30 07:52:34 51°15.038 2°43.908 264.4 11 263 19.3
2009-09-30 07:52:39 51°15.036 2°43.884 263.9 11.1 261 19.2
2009-09-30 07:52:44 51°15.034 2°43.859 264.1 11 263 19.1
2009-09-30 07:52:49 51°15.032 2°43.835 264.5 10.9 262 19.1
2009-09-30 07:52:54 51°15.03 2°43.811 264 11.1 262 19.2
2009-09-30 07:52:59 51°15.028 2°43.787 263.9 11 262 19.1
2009-09-30 07:53:04 51°15.025 2°43.763 263.6 10.9 261 19.1
2009-09-30 07:53:09 51°15.023 2°43.739 263.8 11.1 262 19.1
2009-09-30 07:53:14 51°15.021 2°43.715 264.3 11 262 18.8
2009-09-30 07:53:19 51°15.018 2°43.691 264.1 11 261 18.4
2009-09-30 07:53:24 51°15.016 2°43.667 263.6 11 263 18.2
2009-09-30 07:53:29 51°15.014 2°43.643 264.3 11 261 18.2
2009-09-30 07:53:34 51°15.012 2°43.619 263.7 11 262 18
2009-09-30 07:53:39 51°15.01 2°43.594 263.9 11 261 18
2009-09-30 07:53:44 51°15.008 2°43.57 264.1 11 263 17.7
2009-09-30 07:53:49 51°15.006 2°43.546 264 11 261 17.5
2009-09-30 07:53:54 51°15.003 2°43.522 263.6 11 262 16.8
2009-09-30 07:53:59 51°15.001 2°43.498 264.2 11 261 17.5
2009-09-30 07:54:04 51°14.999 2°43.474 264.1 11 262 17.5
2009-09-30 07:54:09 51°14.997 2°43.45 263.9 11 262 17.3
2009-09-30 07:54:14 51°14.995 2°43.426 263.7 10.9 262 16.4
2009-09-30 07:54:19 51°14.992 2°43.402 264.2 11 260 16.9
2009-09-30 07:54:24 51°14.99 2°43.378 263.8 10.9 262 17.2
2009-09-30 07:54:29 51°14.988 2°43.354 263.9 10.9 261 16.9
2009-09-30 07:54:34 51°14.986 2°43.33 263.6 11 261 16.9
2009-09-30 07:54:39 51°14.984 2°43.306 264 11 263 16.5
2009-09-30 07:54:44 51°14.981 2°43.283 264.3 10.9 260 16.5
2009-09-30 07:54:49 51°14.98 2°43.258 264.3 11 263 16.4
2009-09-30 07:54:54 51°14.978 2°43.234 264.5 11 263 16.1
2009-09-30 07:54:59 51°14.976 2°43.21 265.4 11 262 15.8
2009-09-30 07:55:04 51°14.974 2°43.186 265 11 263 14.9
2009-09-30 07:55:09 51°14.972 2°43.162 264.8 10.9 262 15.6
2009-09-30 07:55:14 51°14.97 2°43.139 264.6 10.9 261 15.7
2009-09-30 07:55:19 51°14.967 2°43.115 264.4 10.7 259 14.7
2009-09-30 07:55:24 51°14.961 2°43.094 259.3 10.6 249 15.5
2009-09-30 07:55:29 51°14.955 2°43.073 251.5 10.5 247 15.2
2009-09-30 07:55:34 51°14.947 2°43.052 246.1 10.7 241 15.4
2009-09-30 07:55:39 51°14.941 2°43.031 245.7 10.7 242 15.7
2009-09-30 07:55:44 51°14.932 2°43.011 241.8 10.9 235 15.7
2009-09-30 07:55:49 51°14.925 2°42.991 241.5 10.6 241 15.5
2009-09-30 07:55:54 51°14.915 2°42.973 239.1 10.7 231 15.6
2009-09-30 07:55:59 51°14.905 2°42.955 233.2 11 229 15.3
2009-09-30 07:56:04 51°14.895 2°42.937 231.9 10.6 230 14.1